createdAt,value
2019-02-24T00:00:34.871Z,2.41
2019-02-24T00:03:03.397Z,2.38
2019-02-24T00:05:31.644Z,2.37
2019-02-24T00:07:59.964Z,2.37
2019-02-24T00:10:28.211Z,2.35
2019-02-24T00:12:56.444Z,2.29
2019-02-24T00:15:24.990Z,2.27
2019-02-24T00:17:53.578Z,2.29
2019-02-24T00:20:21.816Z,2.29
2019-02-24T00:22:50.327Z,2.29
2019-02-24T00:25:18.816Z,2.29
2019-02-24T00:27:47.049Z,2.28
2019-02-24T00:30:15.290Z,2.31
2019-02-24T00:32:43.524Z,2.30
2019-02-24T00:35:12.125Z,2.31
2019-02-24T00:37:40.360Z,2.31
2019-02-24T00:40:08.886Z,2.31
2019-02-24T00:42:37.296Z,2.30
2019-02-24T00:45:07.604Z,2.25
2019-02-24T00:47:35.840Z,2.21
2019-02-24T00:50:05.684Z,2.16
2019-02-24T00:52:33.911Z,2.18
2019-02-24T00:55:02.262Z,2.17
2019-02-24T00:57:30.499Z,2.09
2019-02-24T00:59:58.755Z,2.04
2019-02-24T01:02:27.268Z,2.05
2019-02-24T01:04:55.753Z,1.99
2019-02-24T01:07:24.221Z,1.93
2019-02-24T01:09:52.451Z,2.01
2019-02-24T01:12:20.697Z,2.03
2019-02-24T01:14:49.170Z,2.01
2019-02-24T01:17:17.408Z,2.00
2019-02-24T01:19:45.640Z,1.98
2019-02-24T01:22:13.888Z,1.93
2019-02-24T01:24:42.122Z,1.93
2019-02-24T01:27:10.364Z,1.90
2019-02-24T01:29:38.931Z,1.89
2019-02-24T01:32:07.175Z,1.87
2019-02-24T01:34:35.410Z,1.79
2019-02-24T01:37:03.653Z,1.76
2019-02-24T01:39:32.243Z,1.74
2019-02-24T01:42:00.731Z,1.72
2019-02-24T01:44:29.213Z,1.73
2019-02-24T01:46:57.693Z,1.73
2019-02-24T01:49:25.928Z,1.72
2019-02-24T01:51:54.179Z,1.74
2019-02-24T01:54:22.415Z,1.72
2019-02-24T01:56:50.910Z,1.69
2019-02-24T01:59:19.385Z,1.71
2019-02-24T02:01:47.622Z,1.61
2019-02-24T02:04:16.683Z,1.59
2019-02-24T02:06:44.924Z,1.58
2019-02-24T02:09:13.431Z,1.57
2019-02-24T02:11:41.667Z,1.56
2019-02-24T02:14:10.174Z,1.56
2019-02-24T02:16:38.415Z,1.55
2019-02-24T02:19:06.932Z,1.54
2019-02-24T02:21:35.169Z,1.49
2019-02-24T02:24:03.415Z,1.51
2019-02-24T02:26:31.648Z,1.48
2019-02-24T02:29:00.154Z,1.48
2019-02-24T02:31:28.608Z,1.41
2019-02-24T02:33:56.848Z,1.36
2019-02-24T02:36:25.090Z,1.36
2019-02-24T02:38:53.395Z,1.36
2019-02-24T02:41:21.855Z,1.35
2019-02-24T02:43:50.434Z,1.36
2019-02-24T02:46:19.016Z,1.34
2019-02-24T02:48:47.256Z,1.32
2019-02-24T02:51:15.518Z,1.34
2019-02-24T02:53:43.861Z,1.30
2019-02-24T02:56:13.156Z,1.26
2019-02-24T02:58:41.663Z,1.27
2019-02-24T03:01:09.913Z,1.28
2019-02-24T03:03:38.140Z,1.23
2019-02-24T03:06:08.006Z,1.23
2019-02-24T03:08:45.395Z,1.23
2019-02-24T03:11:13.895Z,1.24
2019-02-24T03:13:42.220Z,1.25
2019-02-24T03:16:10.462Z,1.19
2019-02-24T03:18:38.700Z,1.15
2019-02-24T03:21:06.928Z,1.13
2019-02-24T03:23:35.178Z,1.11
2019-02-24T03:26:03.477Z,1.09
2019-02-24T03:28:32.018Z,1.10
2019-02-24T03:31:00.244Z,1.08
2019-02-24T03:33:28.576Z,1.07
2019-02-24T03:35:56.814Z,1.07
2019-02-24T03:38:25.315Z,1.05
2019-02-24T03:40:53.551Z,1.03
2019-02-24T03:43:21.784Z,0.98
2019-02-24T03:45:50.019Z,0.98
2019-02-24T03:48:18.255Z,0.98
2019-02-24T03:50:46.494Z,1.00
2019-02-24T03:53:14.718Z,1.04
2019-02-24T03:55:42.959Z,1.05
2019-02-24T03:58:11.195Z,1.05
2019-02-24T04:00:39.731Z,1.03
2019-02-24T04:03:07.965Z,1.01
2019-02-24T04:05:36.461Z,0.98
2019-02-24T04:08:05.508Z,0.96
2019-02-24T04:10:33.967Z,0.95
2019-02-24T04:13:02.202Z,0.94
2019-02-24T04:15:30.432Z,0.96
2019-02-24T04:17:58.910Z,0.96
2019-02-24T04:20:27.137Z,0.99
2019-02-24T04:22:55.374Z,1.00
2019-02-24T04:25:23.606Z,0.97
2019-02-24T04:27:51.844Z,0.94
2019-02-24T04:30:20.076Z,0.94
2019-02-24T04:32:48.325Z,0.94
2019-02-24T04:35:16.558Z,0.92
2019-02-24T04:37:44.799Z,0.92
2019-02-24T04:40:13.285Z,0.93
2019-02-24T04:42:41.593Z,0.92
2019-02-24T04:45:09.894Z,0.92
2019-02-24T04:47:38.403Z,0.93
2019-02-24T04:50:06.635Z,0.92
2019-02-24T04:52:34.981Z,0.91
2019-02-24T04:55:03.217Z,0.90
2019-02-24T04:57:31.456Z,0.88
2019-02-24T05:00:00.011Z,0.87
2019-02-24T05:02:28.259Z,0.87
2019-02-24T05:04:56.568Z,0.80
2019-02-24T05:07:25.135Z,0.77
2019-02-24T05:09:53.368Z,0.72
2019-02-24T05:12:21.607Z,0.73
2019-02-24T05:14:49.840Z,0.76
2019-02-24T05:17:18.071Z,0.76
2019-02-24T05:19:46.621Z,0.76
2019-02-24T05:22:14.858Z,0.77
2019-02-24T05:24:43.092Z,0.77
2019-02-24T05:27:11.318Z,0.76
2019-02-24T05:29:45.929Z,0.76
2019-02-24T05:32:09.514Z,0.73
2019-02-24T05:34:37.762Z,0.70
2019-02-24T05:37:06.220Z,0.68
2019-02-24T05:39:34.461Z,0.69
2019-02-24T05:42:02.690Z,0.68
2019-02-24T05:44:30.933Z,0.68
2019-02-24T05:46:59.167Z,0.71
2019-02-24T05:49:27.408Z,0.73
2019-02-24T05:51:55.647Z,0.74
2019-02-24T05:54:23.915Z,0.72
2019-02-24T05:56:52.114Z,0.69
2019-02-24T05:59:20.607Z,0.61
2019-02-24T06:01:48.842Z,0.60
2019-02-24T06:04:17.083Z,0.61
2019-02-24T06:06:45.644Z,0.61
2019-02-24T06:09:13.926Z,0.62
2019-02-24T06:11:42.159Z,0.62
2019-02-24T06:14:10.395Z,0.59
2019-02-24T06:16:38.626Z,0.62
2019-02-24T06:19:06.892Z,0.62
2019-02-24T06:21:35.343Z,0.63
2019-02-24T06:24:03.587Z,0.58
2019-02-24T06:26:31.824Z,0.55
2019-02-24T06:29:00.051Z,0.52
2019-02-24T06:31:28.297Z,0.51
2019-02-24T06:33:56.585Z,0.51
2019-02-24T06:36:24.827Z,0.54
2019-02-24T06:38:53.055Z,0.52
2019-02-24T06:41:21.615Z,0.50
2019-02-24T06:43:49.850Z,0.55
2019-02-24T06:46:18.088Z,0.60
2019-02-24T06:48:46.319Z,0.63
2019-02-24T06:51:14.949Z,0.69
2019-02-24T06:53:43.178Z,0.74
2019-02-24T06:56:11.415Z,0.80
2019-02-24T06:58:39.644Z,0.84
2019-02-24T07:01:07.883Z,0.88
2019-02-24T07:03:36.116Z,0.95
2019-02-24T07:06:04.360Z,1.02
2019-02-24T07:08:32.587Z,1.11
2019-02-24T07:11:00.822Z,1.20
2019-02-24T07:13:29.057Z,1.29
2019-02-24T07:15:57.292Z,1.39
2019-02-24T07:18:25.519Z,1.47
2019-02-24T07:20:53.756Z,1.56
2019-02-24T07:23:22.323Z,1.65
2019-02-24T07:25:50.552Z,1.73
2019-02-24T07:28:18.898Z,1.83
2019-02-24T07:30:47.124Z,1.95
2019-02-24T07:33:15.363Z,2.07
2019-02-24T07:35:43.920Z,2.20
2019-02-24T07:38:12.167Z,2.32
2019-02-24T07:40:40.415Z,2.46
2019-02-24T07:43:08.652Z,2.57
2019-02-24T07:45:36.895Z,2.64
2019-02-24T07:48:05.143Z,2.72
2019-02-24T07:50:33.376Z,2.80
2019-02-24T07:53:01.630Z,2.89
2019-02-24T07:55:30.009Z,3.01
2019-02-24T07:57:58.250Z,3.23
2019-02-24T08:00:32.196Z,3.23
2019-02-24T08:02:56.804Z,3.32
2019-02-24T08:05:25.045Z,3.43
2019-02-24T08:07:53.277Z,3.53
2019-02-24T08:10:21.543Z,3.68
2019-02-24T08:12:50.004Z,3.68
2019-02-24T08:15:18.245Z,3.89
2019-02-24T08:17:46.487Z,3.98
2019-02-24T08:20:14.727Z,4.16
2019-02-24T08:22:42.961Z,4.16
2019-02-24T08:25:11.437Z,4.32
2019-02-24T08:27:39.900Z,4.32
2019-02-24T08:30:12.136Z,4.41
2019-02-24T08:32:40.368Z,4.44
2019-02-24T08:35:08.883Z,4.62
2019-02-24T08:37:37.115Z,4.66
2019-02-24T08:40:07.200Z,4.66
2019-02-24T08:42:35.460Z,4.84
2019-02-24T08:45:04.773Z,4.92
2019-02-24T08:47:33.008Z,4.92
2019-02-24T08:50:01.255Z,4.92
2019-02-24T08:52:29.488Z,5.17
2019-02-24T08:54:57.737Z,5.24
2019-02-24T08:57:26.196Z,5.30
2019-02-24T08:59:54.663Z,5.30
2019-02-24T09:02:23.124Z,5.43
2019-02-24T09:04:51.368Z,5.43
2019-02-24T09:07:19.611Z,5.48
2019-02-24T09:09:47.854Z,5.57
2019-02-24T09:12:16.337Z,5.54
2019-02-24T09:14:44.791Z,5.54
2019-02-24T09:17:13.033Z,5.77
2019-02-24T09:19:41.261Z,5.77
2019-02-24T09:22:09.519Z,5.83
2019-02-24T09:24:37.748Z,5.83
2019-02-24T09:27:06.016Z,5.99
2019-02-24T09:29:34.225Z,6.09
2019-02-24T09:32:02.463Z,6.11
2019-02-24T09:34:30.700Z,6.28
2019-02-24T09:36:58.940Z,6.41
2019-02-24T09:39:27.180Z,6.45
2019-02-24T09:41:55.420Z,6.58
2019-02-24T09:44:23.938Z,6.58
2019-02-24T09:46:52.404Z,6.68
2019-02-24T09:49:20.644Z,6.76
2019-02-24T09:51:49.114Z,6.83
2019-02-24T09:54:17.345Z,6.89
2019-02-24T09:56:45.598Z,6.97
2019-02-24T09:59:13.831Z,7.06
2019-02-24T10:01:42.299Z,7.14
2019-02-24T10:04:10.754Z,7.23
2019-02-24T10:06:38.994Z,7.33
2019-02-24T10:09:07.230Z,7.40
2019-02-24T10:11:35.461Z,7.44
2019-02-24T10:14:03.724Z,7.51
2019-02-24T10:16:31.930Z,7.58
2019-02-24T10:19:00.166Z,7.65
2019-02-24T10:21:28.405Z,7.71
2019-02-24T10:23:56.675Z,7.79
2019-02-24T10:26:25.173Z,7.90
2019-02-24T10:28:53.659Z,7.93
2019-02-24T10:31:22.241Z,7.90
2019-02-24T10:33:50.483Z,7.98
2019-02-24T10:36:18.814Z,8.04
2019-02-24T10:38:47.054Z,8.03
2019-02-24T10:41:15.283Z,8.05
2019-02-24T10:43:43.524Z,8.06
2019-02-24T10:46:11.759Z,8.01
2019-02-24T10:48:39.995Z,8.13
2019-02-24T10:51:08.554Z,8.16
2019-02-24T10:53:37.020Z,8.25
2019-02-24T10:56:05.265Z,8.17
2019-02-24T10:58:34.874Z,8.32
2019-02-24T11:01:03.237Z,8.38
2019-02-24T11:03:31.470Z,8.49
2019-02-24T11:05:59.704Z,8.49
2019-02-24T11:08:27.949Z,8.53
2019-02-24T11:10:56.179Z,8.51
2019-02-24T11:13:24.416Z,8.53
2019-02-24T11:15:52.664Z,8.60
2019-02-24T11:18:20.900Z,8.65
2019-02-24T11:20:49.359Z,8.74
2019-02-24T11:23:17.854Z,8.87
2019-02-24T11:25:46.087Z,8.99
2019-02-24T11:28:14.317Z,9.04
2019-02-24T11:30:42.835Z,9.13
2019-02-24T11:33:11.315Z,9.16
2019-02-24T11:35:39.550Z,9.11
2019-02-24T11:38:07.786Z,9.14
2019-02-24T11:40:36.260Z,9.12
2019-02-24T11:43:04.777Z,9.08
2019-02-24T11:45:33.243Z,9.06
2019-02-24T11:48:01.475Z,8.97
2019-02-24T11:50:29.710Z,9.07
2019-02-24T11:52:57.951Z,9.13
2019-02-24T11:55:26.192Z,9.16
2019-02-24T11:57:54.421Z,9.20
2019-02-24T12:00:22.659Z,9.24
2019-02-24T12:02:50.889Z,9.26
2019-02-24T12:05:19.149Z,9.29
2019-02-24T12:07:47.383Z,9.28
2019-02-24T12:10:15.621Z,9.30
2019-02-24T12:12:44.078Z,9.36
2019-02-24T12:15:13.550Z,9.43
2019-02-24T12:17:42.043Z,9.44
2019-02-24T12:20:13.954Z,9.45
2019-02-24T12:22:42.202Z,9.50
2019-02-24T12:25:11.178Z,9.58
2019-02-24T12:27:39.414Z,9.60
2019-02-24T12:30:17.432Z,9.62
2019-02-24T12:32:45.671Z,9.64
2019-02-24T12:35:13.910Z,9.70
2019-02-24T12:37:42.158Z,9.76
2019-02-24T12:40:13.830Z,9.83
2019-02-24T12:42:42.067Z,9.87
2019-02-24T12:45:10.937Z,9.88
2019-02-24T12:47:39.186Z,9.90
2019-02-24T12:50:12.608Z,9.92
2019-02-24T12:52:41.178Z,9.98
2019-02-24T12:55:10.351Z,10.07
2019-02-24T12:57:38.767Z,10.11
2019-02-24T13:00:14.695Z,10.16
2019-02-24T13:02:42.943Z,10.25
2019-02-24T13:05:11.474Z,10.31
2019-02-24T13:07:39.715Z,10.32
2019-02-24T13:10:13.887Z,10.34
2019-02-24T13:12:42.441Z,10.36
2019-02-24T13:15:10.685Z,10.40
2019-02-24T13:17:39.314Z,10.46
2019-02-24T13:20:11.575Z,10.48
2019-02-24T13:22:39.888Z,10.51
2019-02-24T13:25:10.734Z,10.54
2019-02-24T13:27:39.247Z,10.55
2019-02-24T13:30:12.619Z,10.58
2019-02-24T13:32:40.932Z,10.58
2019-02-24T13:35:09.541Z,10.65
2019-02-24T13:37:37.792Z,10.69
2019-02-24T13:40:14.049Z,10.73
2019-02-24T13:42:42.285Z,10.79
2019-02-24T13:45:21.312Z,10.86
2019-02-24T13:47:49.829Z,10.91
2019-02-24T13:50:18.322Z,11.04
2019-02-24T13:52:46.556Z,11.14
2019-02-24T13:55:15.441Z,11.22
2019-02-24T13:57:44.084Z,11.27
2019-02-24T14:00:22.167Z,11.37
2019-02-24T14:02:50.408Z,11.43
2019-02-24T14:05:18.650Z,11.51
2019-02-24T14:07:46.918Z,11.59
2019-02-24T14:10:15.688Z,11.61
2019-02-24T14:12:44.174Z,11.67
2019-02-24T14:15:13.885Z,11.63
2019-02-24T14:17:42.121Z,11.74
2019-02-24T14:20:15.439Z,11.78
2019-02-24T14:22:43.675Z,11.81
2019-02-24T14:25:13.157Z,11.82
2019-02-24T14:27:41.615Z,11.84
2019-02-24T14:30:12.501Z,11.92
2019-02-24T14:32:41.043Z,12.04
2019-02-24T14:35:11.755Z,12.10
2019-02-24T14:37:39.989Z,12.26
2019-02-24T14:40:09.571Z,12.42
2019-02-24T14:42:37.820Z,12.55
2019-02-24T14:45:09.504Z,12.72
2019-02-24T14:47:37.748Z,12.87
2019-02-24T14:50:08.337Z,12.97
2019-02-24T14:52:36.568Z,13.10
2019-02-24T14:55:12.394Z,13.22
2019-02-24T14:57:40.634Z,13.33
2019-02-24T15:00:12.440Z,13.34
2019-02-24T15:02:42.764Z,13.47
2019-02-24T15:05:16.364Z,13.39
2019-02-24T15:07:44.121Z,13.50
2019-02-24T15:10:23.269Z,13.53
2019-02-24T15:12:51.775Z,13.57
2019-02-24T15:15:36.855Z,13.59
2019-02-24T15:18:05.119Z,13.67
2019-02-24T15:20:33.655Z,13.63
2019-02-24T15:23:01.907Z,13.55
2019-02-24T15:25:30.468Z,13.76
2019-02-24T15:27:58.711Z,13.72
2019-02-24T15:30:32.407Z,13.53
2019-02-24T15:33:00.648Z,13.60
2019-02-24T15:35:28.908Z,13.62
2019-02-24T15:37:57.539Z,13.73
2019-02-24T15:40:25.877Z,13.60
2019-02-24T15:42:54.121Z,13.64
2019-02-24T15:45:22.443Z,13.55
2019-02-24T15:47:50.670Z,13.59
2019-02-24T15:50:18.925Z,13.59
2019-02-24T15:52:47.140Z,13.54
2019-02-24T15:55:16.318Z,13.60
2019-02-24T15:57:44.547Z,13.60
2019-02-24T16:00:18.150Z,13.65
2019-02-24T16:02:46.389Z,13.70
2019-02-24T16:05:14.628Z,13.76
2019-02-24T16:07:42.859Z,13.73
2019-02-24T16:10:13.807Z,13.57
2019-02-24T16:12:42.050Z,13.52
2019-02-24T16:15:12.938Z,13.38
2019-02-24T16:17:41.176Z,13.19
2019-02-24T16:20:15.213Z,12.84
2019-02-24T16:22:43.680Z,12.69
2019-02-24T16:25:12.280Z,12.49
2019-02-24T16:27:40.513Z,12.23
2019-02-24T16:30:14.209Z,12.04
2019-02-24T16:32:42.537Z,11.89
2019-02-24T16:35:15.329Z,11.74
2019-02-24T16:37:43.566Z,11.57
2019-02-24T16:40:20.380Z,11.44
2019-02-24T16:42:48.837Z,11.31
2019-02-24T16:45:17.223Z,11.19
2019-02-24T16:47:45.507Z,10.88
2019-02-24T16:50:16.262Z,10.99
2019-02-24T16:52:44.497Z,10.88
2019-02-24T16:55:14.381Z,10.79
2019-02-24T16:57:42.721Z,10.71
2019-02-24T17:00:14.744Z,10.63
2019-02-24T17:02:42.989Z,10.56
2019-02-24T17:05:11.231Z,10.49
2019-02-24T17:07:39.511Z,10.37
2019-02-24T17:10:18.911Z,10.29
2019-02-24T17:12:47.119Z,10.18
2019-02-24T17:15:15.595Z,10.08
2019-02-24T17:17:44.121Z,9.97
2019-02-24T17:20:27.160Z,9.86
2019-02-24T17:22:55.399Z,9.70
2019-02-24T17:25:23.650Z,9.57
2019-02-24T17:27:51.870Z,9.46
2019-02-24T17:30:20.098Z,9.39
2019-02-24T17:32:48.335Z,9.33
2019-02-24T17:35:16.787Z,9.26
2019-02-24T17:37:45.041Z,9.20
2019-02-24T17:40:19.473Z,9.14
2019-02-24T17:42:48.349Z,9.08
2019-02-24T17:45:16.578Z,8.99
2019-02-24T17:47:44.837Z,8.89
2019-02-24T17:50:15.163Z,8.79
2019-02-24T17:52:43.405Z,8.71
2019-02-24T17:55:14.869Z,8.62
2019-02-24T17:57:43.117Z,8.50
2019-02-24T18:00:30.672Z,8.40
2019-02-24T18:02:58.954Z,8.30
2019-02-24T18:05:27.412Z,8.25
2019-02-24T18:07:55.645Z,8.23
2019-02-24T18:10:23.872Z,8.20
2019-02-24T18:12:52.107Z,8.16
2019-02-24T18:15:20.408Z,8.08
2019-02-24T18:17:48.660Z,8.02
2019-02-24T18:20:18.723Z,7.93
2019-02-24T18:22:46.973Z,7.84
2019-02-24T18:25:15.182Z,7.78
2019-02-24T18:27:43.426Z,7.72
2019-02-24T18:30:20.684Z,7.65
2019-02-24T18:32:49.142Z,7.54
2019-02-24T18:35:17.381Z,7.48
2019-02-24T18:37:45.611Z,7.39
2019-02-24T18:40:14.693Z,7.31
2019-02-24T18:42:43.122Z,7.26
2019-02-24T18:45:13.124Z,7.23
2019-02-24T18:47:41.582Z,7.21
2019-02-24T18:50:11.775Z,7.19
2019-02-24T18:52:40.226Z,7.15
2019-02-24T18:55:10.035Z,7.11
2019-02-24T18:57:38.260Z,7.08
2019-02-24T19:00:09.669Z,7.05
2019-02-24T19:02:37.980Z,7.02
2019-02-24T19:05:08.131Z,6.99
2019-02-24T19:07:36.369Z,6.96
2019-02-24T19:10:07.936Z,6.91
2019-02-24T19:12:36.511Z,6.82
2019-02-24T19:15:06.495Z,6.78
2019-02-24T19:17:34.729Z,6.75
2019-02-24T19:20:03.500Z,6.70
2019-02-24T19:25:05.952Z,6.63
2019-02-24T19:27:34.284Z,6.56
2019-02-24T19:30:02.527Z,6.53
2019-02-24T19:32:31.034Z,6.52
2019-02-24T19:34:59.615Z,6.53
2019-02-24T19:37:27.859Z,6.53
2019-02-24T19:39:56.136Z,6.50
2019-02-24T19:42:24.598Z,6.46
2019-02-24T19:44:53.138Z,6.44
2019-02-24T19:47:21.731Z,6.40
2019-02-24T19:49:50.012Z,6.32
2019-02-24T19:52:18.206Z,6.30
2019-02-24T19:54:46.444Z,6.27
2019-02-24T19:57:14.694Z,6.29
2019-02-24T19:59:42.928Z,6.24
2019-02-24T20:02:11.176Z,6.20
2019-02-24T20:04:39.416Z,6.25
2019-02-24T20:07:07.660Z,6.28
2019-02-24T20:09:36.118Z,6.26
2019-02-24T20:12:04.805Z,6.20
2019-02-24T20:14:33.035Z,6.12
2019-02-24T20:17:01.519Z,6.03
2019-02-24T20:19:29.753Z,5.91
2019-02-24T20:21:58.007Z,5.86
2019-02-24T20:24:26.238Z,5.81
2019-02-24T20:26:54.478Z,5.75
2019-02-24T20:29:22.943Z,5.70
2019-02-24T20:31:51.191Z,5.64
2019-02-24T20:34:25.530Z,5.61
2019-02-24T20:36:49.656Z,5.59
2019-02-24T20:39:17.891Z,5.54
2019-02-24T20:41:46.133Z,5.53
2019-02-24T20:44:14.389Z,5.56
2019-02-24T20:46:42.637Z,5.56
2019-02-24T20:49:11.214Z,5.55
2019-02-24T20:51:39.685Z,5.43
2019-02-24T20:54:07.929Z,5.51
2019-02-24T20:56:36.171Z,5.51
2019-02-24T20:59:04.414Z,5.51
2019-02-24T21:01:32.651Z,5.54
2019-02-24T21:04:01.223Z,5.55
2019-02-24T21:06:29.488Z,5.58
2019-02-24T21:08:57.728Z,5.55
2019-02-24T21:11:26.270Z,5.54
2019-02-24T21:13:54.512Z,5.49
2019-02-24T21:16:22.974Z,5.48
2019-02-24T21:18:51.453Z,5.48
2019-02-24T21:21:19.685Z,5.38
2019-02-24T21:23:47.930Z,5.24
2019-02-24T21:26:16.175Z,5.10
2019-02-24T21:28:44.650Z,5.10
2019-02-24T21:31:13.121Z,5.10
2019-02-24T21:33:41.610Z,5.06
2019-02-24T21:36:09.878Z,5.02
2019-02-24T21:38:38.121Z,5.02
2019-02-24T21:41:06.605Z,5.05
2019-02-24T21:43:34.843Z,5.12
2019-02-24T21:46:03.438Z,5.12
2019-02-24T21:48:31.918Z,5.11
2019-02-24T21:51:00.176Z,5.08
2019-02-24T21:53:28.406Z,5.07
2019-02-24T21:55:56.654Z,5.04
2019-02-24T21:58:24.912Z,5.01
2019-02-24T22:00:53.500Z,4.97
2019-02-24T22:03:21.991Z,4.89
2019-02-24T22:05:50.242Z,4.67
2019-02-24T22:08:18.739Z,4.63
2019-02-24T22:10:47.241Z,4.67
2019-02-24T22:13:15.816Z,4.67
2019-02-24T22:15:44.072Z,4.60
2019-02-24T22:18:12.717Z,4.60
2019-02-24T22:20:40.983Z,4.61
2019-02-24T22:23:09.224Z,4.66
2019-02-24T22:25:37.470Z,4.72
2019-02-24T22:28:05.984Z,4.79
2019-02-24T22:30:35.301Z,4.79
2019-02-24T22:33:03.532Z,4.75
2019-02-24T22:35:32.059Z,4.74
2019-02-24T22:38:00.294Z,4.71
2019-02-24T22:40:28.536Z,4.68
2019-02-24T22:42:56.772Z,4.56
2019-02-24T22:45:25.048Z,4.40
2019-02-24T22:47:53.328Z,4.40
2019-02-24T22:50:21.575Z,4.54
2019-02-24T22:52:50.105Z,4.52
2019-02-24T22:55:19.605Z,4.49
2019-02-24T22:57:47.837Z,4.50
2019-02-24T23:00:29.103Z,4.51
2019-02-24T23:02:57.576Z,4.49
2019-02-24T23:05:25.881Z,4.49
2019-02-24T23:07:54.117Z,4.49
2019-02-24T23:10:22.345Z,4.47
2019-02-24T23:12:50.640Z,4.44
2019-02-24T23:15:18.875Z,4.43
2019-02-24T23:17:47.356Z,4.42
2019-02-24T23:20:15.585Z,4.33
2019-02-24T23:22:44.070Z,4.28
2019-02-24T23:25:12.306Z,4.05
2019-02-24T23:27:40.554Z,4.08
2019-02-24T23:30:10.090Z,4.08
2019-02-24T23:32:38.335Z,4.01
2019-02-24T23:35:07.142Z,4.08
2019-02-24T23:37:35.414Z,4.07
2019-02-24T23:40:05.764Z,4.07
2019-02-24T23:42:33.998Z,4.05
2019-02-24T23:45:09.534Z,4.00
2019-02-24T23:47:32.421Z,4.00
2019-02-24T23:50:00.945Z,3.84
2019-02-24T23:52:29.187Z,3.90
2019-02-24T23:54:57.433Z,3.72
2019-02-24T23:57:25.666Z,3.72
2019-02-24T23:59:53.913Z,3.72
